Nearby METAR Reports

EGQS - RAF Lossiemouth, UK
Distance from station: WNW 12mi, 19km
Updated: 18/04/2021 03:50
Clear
Clear
 Wind from SSE
Wind: SSE 6 mph , 9 km/h
Temperature: 5°C
Wind Chill: 3°C
Dew Point: 1°C
Humidity: 76%
Barometer: 1022 hPa
Summary: Clear
Visibility: greater than 7 miles , 10 km
2021/04/18 02:50 EGQS 180250Z 15005KT CAVOK 05/01 Q1022 RMK BLU
EGQK - RAF Kinloss, UK
Distance from station: WSW 22mi, 36km
Updated: 18/04/2021 03:50
Mostly cloudy
Mostly cloudy
 Wind from SE
Wind: SE 7 mph , 11 km/h
Temperature: 5°C
Wind Chill: 2°C
Dew Point: 1°C
Humidity: 76%
Barometer: 1022 hPa
Clouds: Mostly cloudy
Visibility: 6 miles , 10 km
Cloud details: Mostly cloudy 5791 m
2021/04/18 02:50 EGQK 180250Z AUTO 13006KT 9999 BKN190/// 05/01 Q1022
 
EGPE - Inverness/Dalcross, UK
Distance from station: WSW 39mi, 63km
Updated: 18/04/2021 03:50
Clear
Clear
 Wind from S
Wind: S 6 mph , 9 km/h
Temperature: 5°C
Wind Chill: 3°C
Dew Point: 1°C
Humidity: 76%
Barometer: 1021 hPa
Clouds: Clear
Visibility: 6 miles , 10 km
2021/04/18 02:50 EGPE 180250Z AUTO 18005KT 9999 NCD 05/01 Q1021
EGPD - Aberdeen/Dyce, UK
Distance from station: SE 44mi, 71km
Updated: 18/04/2021 03:50
Clear
Clear
 Wind from S
Wind: S 9 mph , 15 km/h
Temperature: 3°C
Wind Chill: -1°C
Dew Point: 2°C
Humidity: 93%
Barometer: 1024 hPa
Clouds: Clear
Visibility: 6 miles , 10 km
2021/04/18 02:50 EGPD 180250Z AUTO 17008KT 9999 NCD 03/02 Q1024 NOSIG